Time;durP1;ratioP1;P1;durP2;ratioP2;P2;SDS_P1;SDS_P2;PMS_P1;PMS_P2;Temp;Humidity;BMP_temperature;BMP_pressure;BME280_temperature;BME280_humidity;BME280_pressure;Samples;Min_cycle;Max_cycle;Signal;HPM_P1;HPM_P2
2021/07/05 00:00:55;;;;;;;4.28;2.53;;;17.50;99.90;;;;;;4136847;28;20057;-72
2021/07/05 00:02:56;;;;;;;5.15;2.35;;;17.60;99.90;;;;;;4139220;28;20100;-72
2021/07/05 00:04:57;;;;;;;7.03;3.10;;;17.50;99.90;;;;;;4141223;28;20384;-72
2021/07/05 00:06:57;;;;;;;3.45;2.10;;;17.50;99.90;;;;;;4138621;28;20035;-72
2021/07/05 00:08:58;;;;;;;5.63;2.58;;;17.50;99.90;;;;;;4140733;28;20073;-72
2021/07/05 00:10:58;;;;;;;3.65;2.40;;;17.50;99.90;;;;;;4139961;28;20501;-72
2021/07/05 00:12:59;;;;;;;6.97;3.35;;;17.50;99.90;;;;;;4135994;28;20038;-72
2021/07/05 00:15:01;;;;;;;7.22;3.30;;;17.50;99.90;;;;;;4140332;28;20042;-72
2021/07/05 00:17:02;;;;;;;5.20;3.60;;;17.50;99.90;;;;;;4136979;28;20034;-72
2021/07/05 00:19:03;;;;;;;6.43;2.67;;;17.50;99.90;;;;;;4138186;28;20120;-72
2021/07/05 00:21:04;;;;;;;4.03;2.78;;;17.50;99.90;;;;;;4141306;28;20418;-72
2021/07/05 00:23:05;;;;;;;5.68;3.40;;;17.60;99.90;;;;;;4137302;28;20081;-72
2021/07/05 00:25:08;;;;;;;5.10;3.03;;;17.50;99.90;;;;;;4137988;28;20061;-72
2021/07/05 00:27:08;;;;;;;7.55;3.80;;;17.50;99.90;;;;;;4137994;28;20034;-72
2021/07/05 00:29:09;;;;;;;5.70;3.67;;;17.50;99.90;;;;;;4140764;28;20411;-72
2021/07/05 00:31:10;;;;;;;4.50;3.47;;;17.40;99.90;;;;;;4123368;28;20576;-72
2021/07/05 00:33:10;;;;;;;5.13;3.97;;;17.40;99.90;;;;;;4140370;28;20065;-72
2021/07/05 00:35:13;;;;;;;6.00;4.13;;;17.30;99.90;;;;;;4141466;28;20046;-72
2021/07/05 00:37:13;;;;;;;6.20;4.28;;;17.30;99.90;;;;;;4138424;28;20034;-72
2021/07/05 00:39:14;;;;;;;6.15;4.00;;;17.20;99.90;;;;;;4141340;28;20034;-72
2021/07/05 00:41:16;;;;;;;11.87;4.73;;;17.20;99.90;;;;;;4135771;28;20039;-72
2021/07/05 00:43:17;;;;;;;4.93;4.03;;;17.10;99.90;;;;;;4139414;28;20668;-72
2021/07/05 00:45:19;;;;;;;7.15;3.90;;;17.10;99.90;;;;;;4141265;28;20077;-71
2021/07/05 00:47:19;;;;;;;7.68;4.43;;;17.10;99.90;;;;;;4140505;28;20121;-72
2021/07/05 00:49:20;;;;;;;8.45;4.07;;;17.10;99.90;;;;;;4142055;28;20421;-72
2021/07/05 00:51:22;;;;;;;5.88;4.00;;;17.10;99.90;;;;;;4140793;28;20149;-72
2021/07/05 00:53:23;;;;;;;9.52;4.28;;;17.10;99.90;;;;;;4137466;28;20049;-72
2021/07/05 00:55:25;;;;;;;7.90;4.13;;;17.10;99.90;;;;;;4142201;28;20046;-72
2021/07/05 00:57:28;;;;;;;10.65;4.85;;;17.00;99.90;;;;;;4139535;28;20543;-71
2021/07/05 00:59:28;;;;;;;6.65;3.88;;;17.00;99.90;;;;;;4135991;28;20042;-72
2021/07/05 01:01:29;;;;;;;6.28;3.83;;;17.00;99.90;;;;;;4142154;28;20516;-72
2021/07/05 01:03:30;;;;;;;5.32;3.83;;;17.00;99.90;;;;;;4139876;28;20112;-72
2021/07/05 01:05:31;;;;;;;7.07;3.30;;;17.00;99.90;;;;;;4142269;28;20049;-72
2021/07/05 01:07:32;;;;;;;7.75;4.07;;;17.10;99.90;;;;;;4142731;28;20121;-72
2021/07/05 01:09:32;;;;;;;5.78;3.85;;;17.10;99.90;;;;;;4139478;28;20048;-72
2021/07/05 01:11:33;;;;;;;6.78;4.32;;;17.00;99.90;;;;;;4140949;28;20056;-72
2021/07/05 01:13:34;;;;;;;5.60;3.80;;;17.00;99.90;;;;;;4142139;28;20038;-72
2021/07/05 01:15:34;;;;;;;5.28;3.63;;;17.00;99.90;;;;;;4139142;28;20040;-72
2021/07/05 01:17:37;;;;;;;5.50;3.58;;;17.00;99.90;;;;;;4141430;28;20455;-72
2021/07/05 01:19:38;;;;;;;4.45;3.88;;;17.00;99.90;;;;;;4139307;28;20638;-72
2021/07/05 01:21:39;;;;;;;6.68;4.10;;;17.00;99.90;;;;;;4136795;28;20436;-72
2021/07/05 01:23:40;;;;;;;6.30;4.13;;;17.00;99.90;;;;;;4140100;28;20418;-72
2021/07/05 01:25:41;;;;;;;5.93;4.10;;;17.00;99.90;;;;;;4141413;28;20064;-72
2021/07/05 01:27:43;;;;;;;5.63;3.47;;;17.00;99.90;;;;;;4139578;28;20042;-72
2021/07/05 01:29:44;;;;;;;6.18;3.95;;;17.00;99.90;;;;;;4138886;28;20053;-72
2021/07/05 01:31:45;;;;;;;4.30;3.78;;;17.00;99.90;;;;;;4142307;28;20121;-72
2021/07/05 01:33:46;;;;;;;6.07;3.90;;;17.00;99.90;;;;;;4139928;28;20521;-72
2021/07/05 01:35:46;;;;;;;6.30;4.00;;;17.00;99.90;;;;;;4121779;28;20125;-72
2021/07/05 01:37:48;;;;;;;5.63;3.72;;;17.00;99.90;;;;;;4139016;28;20038;-72
2021/07/05 01:39:49;;;;;;;4.55;3.80;;;17.00;99.90;;;;;;4137959;28;20039;-72
2021/07/05 01:41:54;;;;;;;4.47;3.33;;;17.00;99.90;;;;;;4138275;28;20037;-72
2021/07/05 01:43:55;;;;;;;5.57;4.07;;;17.00;99.90;;;;;;4122586;28;20068;-72
2021/07/05 01:45:56;;;;;;;7.07;3.53;;;17.00;99.90;;;;;;4139761;28;20084;-72
2021/07/05 01:47:58;;;;;;;5.80;3.97;;;17.00;99.90;;;;;;4139330;28;20046;-72
2021/07/05 01:49:58;;;;;;;5.10;3.83;;;16.90;99.90;;;;;;4141052;28;20036;-72
2021/07/05 01:51:59;;;;;;;6.75;4.00;;;16.90;99.90;;;;;;4139407;28;20117;-72
2021/07/05 01:54:00;;;;;;;4.13;3.72;;;16.90;99.90;;;;;;4143717;28;20030;-71
2021/07/05 01:56:01;;;;;;;8.65;4.00;;;16.90;99.90;;;;;;4124725;28;20026;-72
2021/07/05 01:58:04;;;;;;;4.53;3.38;;;16.90;99.90;;;;;;4143611;28;20092;-72
2021/07/05 02:00:18;;;;;;;4.10;3.22;;;16.90;99.90;;;;;;4142230;28;20828;-72
2021/07/05 02:02:18;;;;;;;5.78;3.78;;;16.90;99.90;;;;;;4140434;28;20052;-72
2021/07/05 02:04:19;;;;;;;8.07;3.55;;;16.90;99.90;;;;;;4142294;28;20046;-72
2021/07/05 02:06:19;;;;;;;5.32;3.45;;;17.00;99.90;;;;;;4124795;28;20038;-72
2021/07/05 02:08:22;;;;;;;4.18;3.40;;;16.90;99.90;;;;;;4135473;28;20615;-72
2021/07/05 02:10:27;;;;;;;3.92;3.22;;;17.00;99.90;;;;;;4134645;28;20042;-72
2021/07/05 02:12:28;;;;;;;12.43;3.83;;;17.00;99.90;;;;;;4135956;28;20511;-72
2021/07/05 02:14:29;;;;;;;6.88;4.00;;;17.00;99.90;;;;;;4137540;28;20048;-72
2021/07/05 02:16:32;;;;;;;5.45;3.40;;;16.90;99.90;;;;;;4137994;28;20037;-72
2021/07/05 02:18:33;;;;;;;4.85;3.25;;;16.90;99.90;;;;;;4137838;28;20034;-72
2021/07/05 02:20:34;;;;;;;10.50;3.90;;;17.00;99.90;;;;;;4139414;28;20495;-72
2021/07/05 02:22:35;;;;;;;5.22;3.10;;;17.00;99.90;;;;;;4141812;28;20038;-72
2021/07/05 02:24:36;;;;;;;5.03;3.20;;;17.00;99.90;;;;;;4137831;28;20042;-72
2021/07/05 02:26:37;;;;;;;4.70;3.28;;;17.00;99.90;;;;;;4138711;28;20038;-71
2021/07/05 02:28:38;;;;;;;6.15;2.85;;;17.00;99.90;;;;;;4141302;28;20038;-72
2021/07/05 02:30:41;;;;;;;3.72;2.95;;;17.00;99.90;;;;;;4120536;28;20110;-72
2021/07/05 02:32:43;;;;;;;5.03;2.67;;;17.00;99.90;;;;;;4140864;28;20594;-72
2021/07/05 02:34:43;;;;;;;5.60;3.03;;;17.00;99.90;;;;;;4141033;28;20069;-72
2021/07/05 02:36:44;;;;;;;5.43;3.28;;;17.10;99.90;;;;;;4139127;28;20065;-72
2021/07/05 02:38:47;;;;;;;4.15;3.13;;;17.00;99.90;;;;;;4141101;28;20042;-72
2021/07/05 02:40:50;;;;;;;4.22;3.28;;;17.00;99.90;;;;;;4141147;28;20038;-72
2021/07/05 02:42:51;;;;;;;3.15;2.65;;;17.00;99.90;;;;;;4133907;28;20702;-72
2021/07/05 02:44:51;;;;;;;4.53;2.78;;;17.10;99.90;;;;;;4139133;28;20038;-72
2021/07/05 02:46:52;;;;;;;2.88;2.50;;;17.10;99.90;;;;;;4140965;28;20120;-72
2021/07/05 02:48:52;;;;;;;6.43;2.60;;;17.10;99.90;;;;;;4136347;28;20032;-72
2021/07/05 02:50:56;;;;;;;4.35;3.03;;;17.10;99.90;;;;;;4141557;28;20038;-72
2021/07/05 02:52:59;;;;;;;3.65;2.75;;;17.10;99.90;;;;;;4139833;28;20058;-72
2021/07/05 02:55:00;;;;;;;;;;;17.10;99.90;;;;;;4137876;28;20077;-72
2021/07/05 02:57:00;;;;;;;5.40;3.15;;;17.20;99.90;;;;;;4141884;28;20423;-72
2021/07/05 02:59:01;;;;;;;5.53;2.60;;;17.20;99.90;;;;;;4142723;28;20038;-72
2021/07/05 03:01:05;;;;;;;4.05;2.47;;;17.20;99.90;;;;;;4142975;28;20070;-72
2021/07/05 03:03:06;;;;;;;6.57;2.80;;;17.20;99.90;;;;;;4139658;28;20093;-72
2021/07/05 03:05:09;;;;;;;10.57;2.80;;;17.20;99.90;;;;;;4144242;28;20038;-72
2021/07/05 03:07:09;;;;;;;2.95;2.25;;;17.20;99.90;;;;;;4141244;28;20061;-72
2021/07/05 03:09:10;;;;;;;4.88;2.03;;;17.20;99.90;;;;;;4142644;28;20065;-72
2021/07/05 03:11:12;;;;;;;3.17;2.45;;;17.30;99.90;;;;;;4142575;28;20513;-72
2021/07/05 03:13:16;;;;;;;3.58;2.60;;;17.30;99.90;;;;;;4143281;28;20115;-72
2021/07/05 03:15:17;;;;;;;8.23;2.97;;;17.20;99.90;;;;;;4139006;28;20096;-72
2021/07/05 03:17:18;;;;;;;2.80;2.25;;;17.20;99.90;;;;;;4142421;28;20060;-72
2021/07/05 03:19:18;;;;;;;4.00;2.20;;;17.20;99.90;;;;;;4139946;28;20038;-72
2021/07/05 03:21:19;;;;;;;4.88;1.95;;;17.20;99.90;;;;;;4141185;28;20042;-72
2021/07/05 03:23:21;;;;;;;5.38;2.15;;;17.20;99.90;;;;;;4142285;28;20034;-72
2021/07/05 03:25:24;;;;;;;3.30;2.43;;;17.30;99.90;;;;;;4141977;28;20033;-72
2021/07/05 03:27:27;;;;;;;2.42;2.10;;;17.30;99.90;;;;;;4138657;28;20277;-72
2021/07/05 03:29:27;;;;;;;3.33;2.22;;;17.30;99.90;;;;;;4141519;28;20479;-72
2021/07/05 03:31:28;;;;;;;6.07;2.17;;;17.30;99.90;;;;;;4137911;28;20068;-72
2021/07/05 03:33:28;;;;;;;6.72;1.90;;;17.30;99.90;;;;;;4142847;28;20037;-72
2021/07/05 03:35:30;;;;;;;3.42;2.35;;;17.30;99.90;;;;;;4143188;28;20134;-72
2021/07/05 03:37:30;;;;;;;2.95;1.90;;;17.30;99.90;;;;;;4139996;28;20037;-72
2021/07/05 03:39:31;;;;;;;5.65;2.63;;;17.30;99.90;;;;;;4142275;28;20052;-72
2021/07/05 03:41:32;;;;;;;5.55;1.83;;;17.30;99.90;;;;;;4142262;28;20060;-72
2021/07/05 03:43:32;;;;;;;5.00;2.42;;;17.30;99.90;;;;;;4139486;28;20659;-72
2021/07/05 03:45:36;;;;;;;5.35;2.17;;;17.30;99.90;;;;;;4140696;28;20038;-72
2021/07/05 03:47:37;;;;;;;6.55;2.22;;;17.30;99.90;;;;;;4141979;28;20113;-72
2021/07/05 03:49:37;;;;;;;6.15;2.28;;;17.30;99.90;;;;;;4136200;28;20045;-72
2021/07/05 03:51:38;;;;;;;5.35;2.05;;;17.20;99.90;;;;;;4138977;28;20042;-72
2021/07/05 03:53:39;;;;;;;5.47;2.45;;;17.30;99.90;;;;;;4139822;28;20046;-72
2021/07/05 03:55:39;;;;;;;4.70;2.20;;;17.30;99.90;;;;;;4144228;28;20050;-72
2021/07/05 03:57:40;;;;;;;4.78;2.65;;;17.30;99.90;;;;;;4142657;28;20072;-72
2021/07/05 03:59:41;;;;;;;5.68;3.10;;;17.30;99.90;;;;;;4136180;28;20029;-72
2021/07/05 04:01:42;;;;;;;6.60;2.13;;;17.20;99.90;;;;;;4137847;28;20675;-72
2021/07/05 04:03:42;;;;;;;3.45;1.85;;;17.10;99.90;;;;;;4141112;28;20041;-72
2021/07/05 04:05:43;;;;;;;1.90;1.30;;;17.00;99.90;;;;;;4132918;28;20073;-72
2021/07/05 04:07:44;;;;;;;2.15;1.00;;;16.90;99.90;;;;;;4137454;28;20042;-72
2021/07/05 04:09:45;;;;;;;1.10;0.93;;;16.70;99.90;;;;;;4139151;28;20697;-72
2021/07/05 04:11:45;;;;;;;0.70;0.63;;;16.60;99.90;;;;;;4134043;28;20129;-72
2021/07/05 04:13:46;;;;;;;2.65;0.80;;;16.50;99.90;;;;;;4138252;28;20136;-72
2021/07/05 04:15:47;;;;;;;1.45;0.68;;;16.30;99.90;;;;;;4136259;28;20536;-72
2021/07/05 04:17:48;;;;;;;5.07;1.05;;;16.30;99.90;;;;;;4139443;28;20053;-72
2021/07/05 04:19:48;;;;;;;2.08;0.90;;;16.10;99.90;;;;;;4139535;28;20427;-72
2021/07/05 04:21:49;;;;;;;3.97;1.50;;;16.00;99.90;;;;;;4139892;28;20034;-72
2021/07/05 04:23:50;;;;;;;3.42;1.05;;;16.00;99.90;;;;;;4135374;28;20069;-72
2021/07/05 04:25:52;;;;;;;4.35;1.23;;;15.90;99.90;;;;;;4132972;28;20073;-72
2021/07/05 04:27:54;;;;;;;1.58;0.98;;;16.00;99.90;;;;;;4140483;28;20080;-72
2021/07/05 04:29:54;;;;;;;2.97;1.23;;;15.90;99.90;;;;;;4135376;28;20026;-72
2021/07/05 04:31:55;;;;;;;1.83;0.82;;;15.90;99.90;;;;;;4132056;28;20539;-72
2021/07/05 04:33:56;;;;;;;1.48;1.02;;;15.90;99.90;;;;;;4138557;28;20062;-72
2021/07/05 04:35:56;;;;;;;1.42;1.05;;;15.90;99.90;;;;;;4135342;28;20121;-73
2021/07/05 04:37:59;;;;;;;2.55;0.80;;;15.90;99.90;;;;;;4141313;28;20064;-73
2021/07/05 04:39:59;;;;;;;2.83;0.90;;;15.90;99.90;;;;;;4138480;28;20046;-72
2021/07/05 04:42:00;;;;;;;2.47;0.75;;;15.90;99.90;;;;;;4135086;28;20493;-73
2021/07/05 04:44:01;;;;;;;3.05;1.60;;;15.90;99.90;;;;;;4137848;28;20129;-73
2021/07/05 04:46:07;;;;;;;2.40;0.82;;;15.90;99.90;;;;;;4139627;28;20034;-73
2021/07/05 04:48:07;;;;;;;2.60;1.15;;;15.90;99.90;;;;;;4139937;28;20065;-73
2021/07/05 04:50:10;;;;;;;1.35;0.82;;;15.90;99.90;;;;;;4140035;28;20041;-72
2021/07/05 04:52:11;;;;;;;2.60;0.68;;;15.90;99.90;;;;;;4143340;28;20030;-72
2021/07/05 04:54:12;;;;;;;1.17;0.90;;;16.00;99.90;;;;;;4143762;28;20044;-72
2021/07/05 04:56:13;;;;;;;1.05;0.77;;;16.00;99.90;;;;;;4143889;28;20026;-72
2021/07/05 04:58:13;;;;;;;4.32;1.13;;;16.00;99.90;;;;;;4143245;28;20030;-72
2021/07/05 05:00:20;;;;;;;0.57;0.55;;;16.00;99.90;;;;;;4141851;28;20378;-72
2021/07/05 05:02:22;;;;;;;0.90;0.77;;;16.00;99.90;;;;;;4135805;28;20030;-73
2021/07/05 05:04:23;;;;;;;1.05;0.88;;;16.00;99.90;;;;;;4143367;28;20030;-72
2021/07/05 05:06:23;;;;;;;1.58;0.90;;;16.10;99.90;;;;;;4143626;28;20057;-72
2021/07/05 05:08:24;;;;;;;1.63;0.70;;;16.10;99.90;;;;;;4141579;28;20026;-72
2021/07/05 05:10:26;;;;;;;0.88;0.82;;;16.00;99.90;;;;;;4143487;28;20048;-73
2021/07/05 05:12:28;;;;;;;2.03;1.20;;;16.10;99.90;;;;;;4143539;28;20041;-72
2021/07/05 05:14:28;;;;;;;1.35;0.70;;;16.10;99.90;;;;;;4141726;28;20053;-72
2021/07/05 05:16:29;;;;;;;0.90;0.77;;;16.10;99.90;;;;;;4139488;28;20490;-72
2021/07/05 05:18:29;;;;;;;1.15;0.90;;;16.10;99.90;;;;;;4143719;28;20040;-72
2021/07/05 05:20:30;;;;;;;2.78;1.10;;;16.20;99.90;;;;;;4143034;28;20536;-72
2021/07/05 05:22:31;;;;;;;1.40;0.85;;;16.10;99.90;;;;;;4136482;28;20395;-72
2021/07/05 05:24:32;;;;;;;1.40;0.90;;;16.00;99.90;;;;;;4139415;28;20645;-72
2021/07/05 05:26:33;;;;;;;1.55;0.85;;;16.00;99.90;;;;;;4140020;28;20107;-72
2021/07/05 05:28:34;;;;;;;1.45;0.75;;;16.00;99.90;;;;;;4145838;28;20128;-72
2021/07/05 05:30:34;;;;;;;1.77;0.90;;;16.00;99.90;;;;;;4145681;28;20066;-72
2021/07/05 05:32:35;;;;;;;2.45;0.90;;;16.10;99.90;;;;;;4142412;28;20062;-72
2021/07/05 05:34:36;;;;;;;1.15;0.52;;;16.10;99.90;;;;;;4143242;28;20136;-72
2021/07/05 05:36:37;;;;;;;1.38;0.90;;;16.10;99.90;;;;;;4119807;28;20042;-72
2021/07/05 05:38:38;;;;;;;0.85;0.80;;;16.10;99.90;;;;;;4148711;28;20398;-72
2021/07/05 05:40:38;;;;;;;1.27;0.85;;;16.10;99.90;;;;;;4143168;28;20121;-72
2021/07/05 05:42:39;;;;;;;1.40;0.80;;;16.20;99.90;;;;;;4146288;28;20445;-72
2021/07/05 05:44:40;;;;;;;1.00;0.90;;;16.20;99.90;;;;;;4142359;28;20041;-72
2021/07/05 05:46:40;;;;;;;1.02;0.60;;;16.30;99.90;;;;;;4142878;28;20045;-72
2021/07/05 05:48:43;;;;;;;3.88;0.90;;;16.20;99.90;;;;;;4142334;28;20030;-72
2021/07/05 05:50:43;;;;;;;1.90;1.20;;;16.30;99.90;;;;;;4142893;28;20061;-72
2021/07/05 05:52:45;;;;;;;1.65;0.90;;;16.30;99.90;;;;;;4149840;28;20087;-72
2021/07/05 05:54:45;;;;;;;4.53;1.30;;;16.30;99.90;;;;;;4140349;28;20509;-72
2021/07/05 05:56:52;;;;;;;3.25;1.33;;;16.30;99.90;;;;;;4143739;28;20030;-72
2021/07/05 05:58:54;;;;;;;3.63;1.42;;;16.40;99.90;;;;;;4134384;28;20061;-72
2021/07/05 06:00:55;;;;;;;1.50;1.10;;;16.40;99.90;;;;;;4138461;28;20038;-72
2021/07/05 06:02:55;;;;;;;2.85;1.27;;;16.40;99.90;;;;;;4136758;28;20478;-72
2021/07/05 06:04:56;;;;;;;2.50;1.42;;;16.40;99.90;;;;;;4137386;28;20070;-72
2021/07/05 06:06:58;;;;;;;1.80;1.30;;;16.40;99.90;;;;;;4134214;28;21643;-72
2021/07/05 06:08:59;;;;;;;1.80;1.17;;;16.40;99.90;;;;;;4137425;28;20049;-72
2021/07/05 06:10:59;;;;;;;1.23;1.10;;;16.50;99.90;;;;;;4137863;28;20088;-72
2021/07/05 06:13:00;;;;;;;1.15;1.00;;;16.50;99.90;;;;;;4135114;28;20031;-72
2021/07/05 06:15:01;;;;;;;1.77;1.10;;;16.50;99.90;;;;;;4134043;28;20565;-72
2021/07/05 06:17:03;;;;;;;1.58;1.17;;;16.50;99.90;;;;;;4139509;28;20042;-73
2021/07/05 06:19:04;;;;;;;1.58;1.00;;;16.50;99.90;;;;;;4138059;28;20679;-72
2021/07/05 06:21:06;;;;;;;2.35;1.10;;;16.50;99.90;;;;;;4133994;28;20144;-72
2021/07/05 06:23:17;;;;;;;3.08;1.10;;;16.50;99.90;;;;;;4137574;28;20425;-72
2021/07/05 06:25:18;;;;;;;2.17;1.40;;;16.60;99.90;;;;;;4138130;28;20038;-73
2021/07/05 06:27:18;;;;;;;2.38;1.30;;;16.60;99.90;;;;;;4137595;28;20088;-72
2021/07/05 06:29:19;;;;;;;3.35;1.35;;;16.60;99.90;;;;;;4141261;28;20083;-72
2021/07/05 06:31:19;;;;;;;4.03;1.48;;;16.60;99.90;;;;;;4140312;28;20034;-72
2021/07/05 06:33:22;;;;;;;2.83;1.60;;;16.60;99.90;;;;;;4141627;28;20033;-72
2021/07/05 06:35:22;;;;;;;1.65;1.55;;;16.50;99.90;;;;;;4143734;28;20053;-73
2021/07/05 06:37:23;;;;;;;3.58;1.98;;;16.50;99.90;;;;;;4140164;28;20096;-73
2021/07/05 06:39:23;;;;;;;2.15;1.48;;;16.50;99.90;;;;;;4142158;28;20466;-73
2021/07/05 06:41:25;;;;;;;2.55;1.77;;;16.50;99.90;;;;;;4138302;28;20036;-73
2021/07/05 06:43:26;;;;;;;3.35;1.65;;;16.50;99.90;;;;;;4141587;28;20041;-73
2021/07/05 06:45:27;;;;;;;2.33;1.83;;;16.50;99.90;;;;;;4140270;28;20046;-73
2021/07/05 06:47:28;;;;;;;3.90;1.83;;;16.50;99.90;;;;;;4136839;28;20042;-73
2021/07/05 06:49:29;;;;;;;2.92;1.80;;;16.40;99.90;;;;;;4141338;28;20046;-72
2021/07/05 06:51:29;;;;;;;4.70;2.00;;;16.40;99.90;;;;;;4140254;28;20030;-73
2021/07/05 06:53:30;;;;;;;2.92;2.00;;;16.40;99.90;;;;;;4141898;28;20038;-73
2021/07/05 06:55:31;;;;;;;3.72;1.90;;;16.50;99.90;;;;;;4141378;28;20057;-73
2021/07/05 06:57:34;;;;;;;2.38;1.70;;;16.50;99.90;;;;;;4141909;28;20037;-73
2021/07/05 06:59:35;;;;;;;5.32;2.08;;;16.50;99.90;;;;;;4144764;28;20121;-73
2021/07/05 07:01:36;;;;;;;2.60;1.42;;;16.60;99.90;;;;;;4141317;28;20049;-72
2021/07/05 07:03:37;;;;;;;5.60;1.98;;;16.60;99.90;;;;;;4140005;28;20049;-73
2021/07/05 07:05:38;;;;;;;3.22;1.90;;;16.60;99.90;;;;;;4141764;28;20067;-73
2021/07/05 07:07:41;;;;;;;3.47;2.28;;;16.60;99.90;;;;;;4140944;28;20512;-73
2021/07/05 07:09:41;;;;;;;3.50;2.03;;;16.70;99.90;;;;;;4140522;28;20038;-73
2021/07/05 07:11:42;;;;;;;2.45;2.05;;;16.70;99.90;;;;;;4122333;28;20026;-73
2021/07/05 07:13:43;;;;;;;4.15;2.00;;;16.70;99.90;;;;;;4140242;28;20041;-73
2021/07/05 07:15:49;;;;;;;3.08;2.20;;;16.70;99.90;;;;;;4140856;28;20104;-73
2021/07/05 07:19:53;;;;;;;5.15;2.55;;;16.80;99.90;;;;;;4140679;28;20030;-73
2021/07/05 07:21:53;;;;;;;6.13;2.55;;;16.80;99.90;;;;;;4141683;28;20064;-73
2021/07/05 07:23:54;;;;;;;6.15;2.70;;;16.80;99.90;;;;;;4139410;28;20068;-73
2021/07/05 07:25:55;;;;;;;4.82;2.40;;;16.80;99.90;;;;;;4140148;28;20091;-73
2021/07/05 07:27:55;;;;;;;4.72;2.58;;;16.70;99.90;;;;;;4140582;28;20034;-73
2021/07/05 07:29:56;;;;;;;6.30;2.47;;;16.70;99.90;;;;;;4140578;28;20033;-73
2021/07/05 07:31:57;;;;;;;3.38;2.55;;;16.70;99.90;;;;;;4141000;28;20042;-73
2021/07/05 07:33:57;;;;;;;4.30;2.47;;;16.80;99.90;;;;;;4138631;28;20117;-74
2021/07/05 07:36:01;;;;;;;4.80;2.63;;;16.70;99.90;;;;;;4139619;28;20045;-73
2021/07/05 07:38:03;;;;;;;6.60;3.00;;;16.80;99.90;;;;;;4139581;28;20681;-73
2021/07/05 07:42:21;;;;;;;6.32;2.97;;;16.80;99.90;;;;;;4137855;28;20477;-73
2021/07/05 07:44:21;;;;;;;4.10;2.70;;;16.80;99.90;;;;;;4142807;28;20037;-73
2021/07/05 07:46:22;;;;;;;5.65;2.45;;;16.70;99.90;;;;;;4140334;28;20119;-73
2021/07/05 07:48:23;;;;;;;3.25;2.17;;;16.80;99.90;;;;;;4140081;28;20091;-72
2021/07/05 07:50:23;;;;;;;4.50;2.45;;;16.90;99.90;;;;;;4140405;28;20041;-74
2021/07/05 07:52:26;;;;;;;2.72;1.92;;;16.90;99.90;;;;;;4139717;28;20463;-73
2021/07/05 07:54:27;;;;;;;4.10;2.42;;;17.00;99.90;;;;;;4134827;28;20053;-73
2021/07/05 07:56:30;;;;;;;3.55;2.60;;;17.10;99.90;;;;;;4140801;28;20045;-73
2021/07/05 07:58:31;;;;;;;2.53;2.33;;;17.10;99.90;;;;;;4138758;28;20030;-73
2021/07/05 08:00:31;;;;;;;4.18;2.00;;;17.10;99.90;;;;;;4139967;28;20549;-73
2021/07/05 08:02:32;;;;;;;6.18;3.50;;;17.20;99.90;;;;;;4139091;28;20075;-73
2021/07/05 08:04:33;;;;;;;5.50;2.53;;;17.20;99.90;;;;;;4141576;28;20418;-71
2021/07/05 08:06:33;;;;;;;4.68;2.78;;;17.30;99.90;;;;;;4139776;28;20125;-73
2021/07/05 08:08:34;;;;;;;6.32;2.50;;;17.20;99.90;;;;;;4138088;28;20053;-70
2021/07/05 08:10:35;;;;;;;5.20;2.77;;;17.30;99.90;;;;;;4103649;28;1059635;-71
2021/07/05 08:12:36;;;;;;;6.57;2.88;;;17.30;99.90;;;;;;4142820;28;20331;-70
2021/07/05 08:14:36;;;;;;;10.25;3.10;;;17.30;99.90;;;;;;4140486;28;20655;-71
2021/07/05 08:16:37;;;;;;;5.85;2.42;;;17.30;99.90;;;;;;4140890;28;20100;-71
2021/07/05 08:18:38;;;;;;;5.55;2.58;;;17.40;99.90;;;;;;4138241;28;20084;-71
2021/07/05 08:20:38;;;;;;;6.40;3.15;;;17.40;99.90;;;;;;4137068;28;20033;-71
2021/07/05 08:22:39;;;;;;;9.20;2.88;;;17.40;99.90;;;;;;4140627;28;20460;-71
2021/07/05 08:24:40;;;;;;;4.93;2.50;;;17.50;99.90;;;;;;4140297;28;20042;-71
2021/07/05 08:26:41;;;;;;;5.22;2.35;;;17.50;99.90;;;;;;4137892;28;20034;-71
2021/07/05 08:28:42;;;;;;;2.95;1.70;;;17.60;99.90;;;;;;4140152;28;20034;-70
2021/07/05 08:30:44;;;;;;;5.93;2.33;;;17.60;99.90;;;;;;4138582;28;20779;-70
2021/07/05 08:32:45;;;;;;;4.55;2.10;;;17.60;99.90;;;;;;4139515;28;20042;-70
2021/07/05 08:34:45;;;;;;;5.75;2.55;;;17.70;99.90;;;;;;4139486;28;20045;-71
2021/07/05 08:36:46;;;;;;;3.90;2.20;;;17.80;99.90;;;;;;4139560;28;20057;-71
2021/07/05 08:38:48;;;;;;;7.25;2.35;;;17.80;99.90;;;;;;4139184;28;20034;-71
2021/07/05 08:40:48;;;;;;;5.22;2.50;;;17.80;99.90;;;;;;4140283;28;20099;-74
2021/07/05 08:42:49;;;;;;;4.47;2.20;;;17.80;99.90;;;;;;4138477;28;20216;-71
2021/07/05 08:44:50;;;;;;;5.93;2.10;;;17.90;99.90;;;;;;4140587;28;20145;-71
2021/07/05 08:46:51;;;;;;;5.40;1.80;;;17.90;99.90;;;;;;4134804;28;20129;-73
2021/07/05 08:48:52;;;;;;;6.60;2.25;;;18.00;99.90;;;;;;4137746;28;20068;-71
2021/07/05 08:50:53;;;;;;;6.63;2.10;;;18.00;99.90;;;;;;4140655;28;20037;-72
2021/07/05 08:52:54;;;;;;;4.20;1.70;;;18.00;99.90;;;;;;4138494;28;20045;-71
2021/07/05 08:54:55;;;;;;;5.72;2.53;;;18.10;99.90;;;;;;4136224;28;20065;-71
2021/07/05 08:56:55;;;;;;;5.53;1.77;;;18.10;99.90;;;;;;4138760;28;20476;-71
2021/07/05 08:58:56;;;;;;;5.53;2.10;;;18.20;99.90;;;;;;4139797;28;20061;-71
2021/07/05 09:00:57;;;;;;;5.68;1.73;;;18.20;99.90;;;;;;4122060;28;20033;-71
2021/07/05 09:03:00;;;;;;;5.00;1.70;;;18.20;99.90;;;;;;4141279;28;20111;-71
2021/07/05 09:05:01;;;;;;;3.78;1.92;;;18.20;99.90;;;;;;4140057;28;20045;-71
2021/07/05 09:07:08;;;;;;;6.65;2.17;;;18.30;99.90;;;;;;4138548;28;20042;-71
2021/07/05 09:09:11;;;;;;;5.18;2.17;;;18.30;99.90;;;;;;4138797;28;20037;-71
2021/07/05 09:11:18;;;;;;;3.20;1.83;;;18.30;99.90;;;;;;4138097;28;20046;-71
2021/07/05 09:13:20;;;;;;;3.95;2.05;;;18.30;99.90;;;;;;4140871;28;20042;-71
2021/07/05 09:15:21;;;;;;;4.75;1.88;;;18.30;99.90;;;;;;4139643;28;20518;-71
2021/07/05 09:17:32;;;;;;;3.92;1.65;;;18.30;99.90;;;;;;4138914;28;20038;-71
2021/07/05 09:19:33;;;;;;;5.20;2.17;;;18.40;99.90;;;;;;4137026;28;20042;-71
2021/07/05 09:21:33;;;;;;;6.15;1.95;;;18.40;99.90;;;;;;4140192;28;20088;-71
2021/07/05 09:23:35;;;;;;;4.63;1.83;;;18.50;99.90;;;;;;4138887;28;20037;-71
2021/07/05 09:25:38;;;;;;;3.83;1.90;;;18.50;99.90;;;;;;4139124;28;20056;-70
2021/07/05 09:27:39;;;;;;;4.65;2.10;;;18.50;99.90;;;;;;4138824;28;20042;-70
2021/07/05 09:29:42;;;;;;;4.10;1.88;;;18.50;99.90;;;;;;4140618;28;20041;-71
2021/07/05 09:31:54;;;;;;;3.28;1.67;;;18.50;99.90;;;;;;4138971;28;20046;-70
2021/07/05 09:33:55;;;;;;;10.63;2.10;;;18.60;99.90;;;;;;4138956;28;20135;-70
2021/07/05 09:36:01;;;;;;;6.20;1.77;;;18.60;99.90;;;;;;4139403;28;20034;-70
2021/07/05 09:38:02;;;;;;;4.75;1.73;;;18.60;99.90;;;;;;4138491;28;20050;-71
2021/07/05 09:40:02;;;;;;;4.75;1.58;;;18.60;99.90;;;;;;4136684;28;20049;-70
2021/07/05 09:42:09;;;;;;;4.25;1.80;;;18.60;99.90;;;;;;4138461;28;20061;-70
2021/07/05 09:44:13;;;;;;;4.20;1.55;;;18.60;99.90;;;;;;4140450;28;20042;-71
2021/07/05 09:46:14;;;;;;;4.68;2.05;;;18.60;99.90;;;;;;4138452;28;20038;-70
2021/07/05 09:48:18;;;;;;;7.13;2.33;;;18.60;99.90;;;;;;4137661;28;20145;-70
2021/07/05 09:50:21;;;;;;;3.63;1.70;;;18.70;99.90;;;;;;4138729;28;20040;-70
2021/07/05 09:52:25;;;;;;;6.60;2.10;;;18.70;99.90;;;;;;4136867;28;20030;-70
2021/07/05 09:54:25;;;;;;;3.92;1.85;;;18.70;99.90;;;;;;4136686;28;20430;-70
2021/07/05 09:56:29;;;;;;;6.53;2.30;;;18.70;99.90;;;;;;4136481;28;20033;-71
2021/07/05 09:58:31;;;;;;;8.07;2.80;;;18.70;99.90;;;;;;4139736;28;20042;-70
2021/07/05 10:00:38;;;;;;;5.38;1.80;;;18.80;99.90;;;;;;4137733;28;20042;-70
2021/07/05 10:03:05;;;;;;;3.03;1.80;;;18.80;99.90;;;;;;4139106;28;20137;-70
2021/07/05 10:05:15;;;;;;;5.63;1.90;;;18.90;99.90;;;;;;4138101;28;21260;-70
2021/07/05 10:07:16;;;;;;;7.95;2.42;;;18.90;99.90;;;;;;4138951;28;20038;-70
2021/07/05 10:09:34;;;;;;;8.10;1.73;;;18.90;99.90;;;;;;4139489;28;20051;-70
2021/07/05 10:11:35;;;;;;;6.75;1.83;;;18.90;99.90;;;;;;4138963;28;20038;-70
2021/07/05 10:13:35;;;;;;;5.95;1.85;;;18.80;99.90;;;;;;4140194;28;20554;-71
2021/07/05 10:15:37;;;;;;;2.95;1.60;;;18.80;99.90;;;;;;4139406;28;20402;-70
2021/07/05 10:17:42;;;;;;;6.45;2.13;;;18.80;99.90;;;;;;4135534;28;20046;-70
2021/07/05 10:19:43;;;;;;;3.22;1.60;;;18.80;99.90;;;;;;4139377;28;20037;-70
2021/07/05 10:21:44;;;;;;;5.25;1.42;;;18.80;99.90;;;;;;4122001;28;20089;-70
2021/07/05 10:23:46;;;;;;;3.90;1.90;;;18.80;99.90;;;;;;4135245;28;20034;-70
2021/07/05 10:25:49;;;;;;;4.25;1.50;;;18.90;99.90;;;;;;4139842;28;20041;-71
2021/07/05 10:27:50;;;;;;;3.92;1.70;;;18.90;99.90;;;;;;4137694;28;20034;-71
2021/07/05 10:29:51;;;;;;;4.20;1.60;;;18.90;99.90;;;;;;4138276;28;20565;-71
2021/07/05 10:31:52;;;;;;;4.28;1.63;;;19.00;99.90;;;;;;4118380;28;20046;-71
2021/07/05 10:33:58;;;;;;;7.72;1.80;;;19.00;99.90;;;;;;4138818;28;20124;-70
2021/07/05 10:36:04;;;;;;;4.75;1.67;;;19.00;99.90;;;;;;4137260;28;20034;-71
2021/07/05 10:38:14;;;;;;;3.70;1.50;;;19.00;99.90;;;;;;4138412;28;20697;-70